sensor_id;sensor_type;location;lat;lon;timestamp;temperature;humidity
17845;DHT22;9047;53.486;10.218;2023-03-03T00:01:22;-0.20;99.90
17845;DHT22;9047;53.486;10.218;2023-03-03T00:03:50;-0.10;99.90
17845;DHT22;9047;53.486;10.218;2023-03-03T00:06:18;-0.10;99.90
17845;DHT22;9047;53.486;10.218;2023-03-03T00:08:46;0.00;99.90
17845;DHT22;9047;53.486;10.218;2023-03-03T00:11:14;0.10;99.90
17845;DHT22;9047;53.486;10.218;2023-03-03T00:13:51;0.20;99.90
17845;DHT22;9047;53.486;10.218;2023-03-03T00:16:23;0.30;99.90
17845;DHT22;9047;53.486;10.218;2023-03-03T00:18:53;0.30;99.90
17845;DHT22;9047;53.486;10.218;2023-03-03T00:21:27;0.50;99.90
17845;DHT22;9047;53.486;10.218;2023-03-03T00:24:10;0.50;99.90
17845;DHT22;9047;53.486;10.218;2023-03-03T00:26:43;0.60;99.90
17845;DHT22;9047;53.486;10.218;2023-03-03T00:29:33;0.70;99.90
17845;DHT22;9047;53.486;10.218;2023-03-03T00:32:26;0.70;99.90
17845;DHT22;9047;53.486;10.218;2023-03-03T00:34:55;0.80;99.90
17845;DHT22;9047;53.486;10.218;2023-03-03T00:37:34;1.00;99.90
17845;DHT22;9047;53.486;10.218;2023-03-03T00:40:20;1.10;99.90
17845;DHT22;9047;53.486;10.218;2023-03-03T00:43:19;1.20;99.90
17845;DHT22;9047;53.486;10.218;2023-03-03T00:46:16;1.30;99.90
17845;DHT22;9047;53.486;10.218;2023-03-03T00:48:45;1.50;99.90
17845;DHT22;9047;53.486;10.218;2023-03-03T00:51:25;1.60;99.90
17845;DHT22;9047;53.486;10.218;2023-03-03T00:53:53;1.70;99.90
17845;DHT22;9047;53.486;10.218;2023-03-03T00:56:24;1.80;99.90
17845;DHT22;9047;53.486;10.218;2023-03-03T00:58:53;1.80;99.90
17845;DHT22;9047;53.486;10.218;2023-03-03T01:01:24;1.90;99.90
17845;DHT22;9047;53.486;10.218;2023-03-03T01:03:52;1.90;99.90
17845;DHT22;9047;53.486;10.218;2023-03-03T01:06:27;2.00;99.90
17845;DHT22;9047;53.486;10.218;2023-03-03T01:09:10;1.90;99.90
17845;DHT22;9047;53.486;10.218;2023-03-03T01:11:51;2.00;99.90
17845;DHT22;9047;53.486;10.218;2023-03-03T01:14:22;2.10;99.90
17845;DHT22;9047;53.486;10.218;2023-03-03T01:20:14;2.10;99.90
17845;DHT22;9047;53.486;10.218;2023-03-03T01:22:44;2.10;99.90
17845;DHT22;9047;53.486;10.218;2023-03-03T01:25:15;2.20;99.90
17845;DHT22;9047;53.486;10.218;2023-03-03T01:27:45;2.20;99.90
17845;DHT22;9047;53.486;10.218;2023-03-03T01:30:17;2.20;99.90
17845;DHT22;9047;53.486;10.218;2023-03-03T01:32:47;2.20;99.90
17845;DHT22;9047;53.486;10.218;2023-03-03T01:35:17;2.20;99.90
17845;DHT22;9047;53.486;10.218;2023-03-03T01:37:48;2.20;99.90
17845;DHT22;9047;53.486;10.218;2023-03-03T01:40:31;2.20;99.90
17845;DHT22;9047;53.486;10.218;2023-03-03T01:42:59;2.20;99.90
17845;DHT22;9047;53.486;10.218;2023-03-03T01:45:31;2.30;99.90
17845;DHT22;9047;53.486;10.218;2023-03-03T01:48:10;2.30;99.90
17845;DHT22;9047;53.486;10.218;2023-03-03T01:50:44;2.40;99.90
17845;DHT22;9047;53.486;10.218;2023-03-03T01:53:18;2.30;99.90
17845;DHT22;9047;53.486;10.218;2023-03-03T01:55:49;2.30;99.90
17845;DHT22;9047;53.486;10.218;2023-03-03T01:58:25;2.50;99.90
17845;DHT22;9047;53.486;10.218;2023-03-03T02:00:58;2.40;99.90
17845;DHT22;9047;53.486;10.218;2023-03-03T02:03:28;2.40;99.90
17845;DHT22;9047;53.486;10.218;2023-03-03T02:06:02;2.40;99.90
17845;DHT22;9047;53.486;10.218;2023-03-03T02:08:35;2.40;99.90
17845;DHT22;9047;53.486;10.218;2023-03-03T02:11:05;2.40;99.90
17845;DHT22;9047;53.486;10.218;2023-03-03T02:13:34;2.40;99.90
17845;DHT22;9047;53.486;10.218;2023-03-03T02:16:02;2.50;99.90
17845;DHT22;9047;53.486;10.218;2023-03-03T02:18:47;2.50;99.90
17845;DHT22;9047;53.486;10.218;2023-03-03T02:21:18;2.50;99.90
17845;DHT22;9047;53.486;10.218;2023-03-03T02:23:51;2.50;99.90
17845;DHT22;9047;53.486;10.218;2023-03-03T02:31:37;2.50;99.90
17845;DHT22;9047;53.486;10.218;2023-03-03T02:34:05;2.50;99.90
17845;DHT22;9047;53.486;10.218;2023-03-03T02:36:50;2.50;99.90
17845;DHT22;9047;53.486;10.218;2023-03-03T02:44:41;2.50;99.90
17845;DHT22;9047;53.486;10.218;2023-03-03T02:47:23;2.50;99.90
17845;DHT22;9047;53.486;10.218;2023-03-03T02:55:12;2.40;99.90
17845;DHT22;9047;53.486;10.218;2023-03-03T02:57:53;2.50;99.90
17845;DHT22;9047;53.486;10.218;2023-03-03T03:00:38;2.30;99.90
17845;DHT22;9047;53.486;10.218;2023-03-03T03:03:07;2.30;99.90
17845;DHT22;9047;53.486;10.218;2023-03-03T03:05:49;2.30;99.90
17845;DHT22;9047;53.486;10.218;2023-03-03T03:08:41;2.30;99.90
17845;DHT22;9047;53.486;10.218;2023-03-03T03:11:13;2.20;99.90
17845;DHT22;9047;53.486;10.218;2023-03-03T03:34:20;2.20;99.90
17845;DHT22;9047;53.486;10.218;2023-03-03T03:36:49;2.20;99.90
17845;DHT22;9047;53.486;10.218;2023-03-03T03:39:15;2.20;99.90
17845;DHT22;9047;53.486;10.218;2023-03-03T03:41:43;2.20;99.90
17845;DHT22;9047;53.486;10.218;2023-03-03T03:44:17;2.20;99.90
17845;DHT22;9047;53.486;10.218;2023-03-03T03:46:57;2.10;99.90
17845;DHT22;9047;53.486;10.218;2023-03-03T03:49:26;2.10;99.90
17845;DHT22;9047;53.486;10.218;2023-03-03T03:51:53;2.10;99.90
17845;DHT22;9047;53.486;10.218;2023-03-03T03:54:30;2.10;99.90
17845;DHT22;9047;53.486;10.218;2023-03-03T03:56:58;2.10;99.90
17845;DHT22;9047;53.486;10.218;2023-03-03T03:59:25;2.10;99.90
17845;DHT22;9047;53.486;10.218;2023-03-03T04:01:53;2.00;99.90
17845;DHT22;9047;53.486;10.218;2023-03-03T04:04:21;2.00;99.90
17845;DHT22;9047;53.486;10.218;2023-03-03T04:06:50;2.00;99.90
17845;DHT22;9047;53.486;10.218;2023-03-03T04:09:20;1.90;99.90
17845;DHT22;9047;53.486;10.218;2023-03-03T04:11:49;2.00;99.90
17845;DHT22;9047;53.486;10.218;2023-03-03T04:14:31;1.90;99.90
17845;DHT22;9047;53.486;10.218;2023-03-03T04:17:03;2.00;99.90
17845;DHT22;9047;53.486;10.218;2023-03-03T04:19:44;2.00;99.90
17845;DHT22;9047;53.486;10.218;2023-03-03T04:22:13;2.00;99.90
17845;DHT22;9047;53.486;10.218;2023-03-03T04:24:41;1.90;99.90
17845;DHT22;9047;53.486;10.218;2023-03-03T04:27:22;1.90;99.90
17845;DHT22;9047;53.486;10.218;2023-03-03T04:29:49;2.00;99.90
17845;DHT22;9047;53.486;10.218;2023-03-03T04:40:02;1.90;99.90
17845;DHT22;9047;53.486;10.218;2023-03-03T04:42:46;1.90;99.90
17845;DHT22;9047;53.486;10.218;2023-03-03T04:45:14;1.90;99.90
17845;DHT22;9047;53.486;10.218;2023-03-03T04:47:41;1.80;99.90
17845;DHT22;9047;53.486;10.218;2023-03-03T04:50:09;1.80;99.90
17845;DHT22;9047;53.486;10.218;2023-03-03T04:52:37;1.80;99.90
17845;DHT22;9047;53.486;10.218;2023-03-03T04:55:09;1.80;99.90
17845;DHT22;9047;53.486;10.218;2023-03-03T04:57:36;1.80;99.90
17845;DHT22;9047;53.486;10.218;2023-03-03T05:00:08;1.80;99.90
17845;DHT22;9047;53.486;10.218;2023-03-03T05:02:37;1.70;99.90
17845;DHT22;9047;53.486;10.218;2023-03-03T05:05:05;1.70;99.90
17845;DHT22;9047;53.486;10.218;2023-03-03T05:07:32;1.70;99.90
17845;DHT22;9047;53.486;10.218;2023-03-03T05:10:02;1.80;99.90
17845;DHT22;9047;53.486;10.218;2023-03-03T05:12:33;1.70;99.90
17845;DHT22;9047;53.486;10.218;2023-03-03T05:15:00;1.70;99.90
17845;DHT22;9047;53.486;10.218;2023-03-03T05:17:41;1.70;99.90
17845;DHT22;9047;53.486;10.218;2023-03-03T05:20:10;1.70;99.90
17845;DHT22;9047;53.486;10.218;2023-03-03T05:22:38;1.70;99.90
17845;DHT22;9047;53.486;10.218;2023-03-03T05:25:07;1.70;99.90
17845;DHT22;9047;53.486;10.218;2023-03-03T05:27:38;1.70;99.90
17845;DHT22;9047;53.486;10.218;2023-03-03T05:30:10;1.70;99.90
17845;DHT22;9047;53.486;10.218;2023-03-03T05:32:40;1.60;99.90
17845;DHT22;9047;53.486;10.218;2023-03-03T05:35:08;1.70;99.90
17845;DHT22;9047;53.486;10.218;2023-03-03T05:37:36;1.70;99.90
17845;DHT22;9047;53.486;10.218;2023-03-03T05:40:17;1.70;99.90
17845;DHT22;9047;53.486;10.218;2023-03-03T05:42:48;1.70;99.90
17845;DHT22;9047;53.486;10.218;2023-03-03T05:45:17;1.70;99.90
17845;DHT22;9047;53.486;10.218;2023-03-03T05:47:46;1.70;99.90
17845;DHT22;9047;53.486;10.218;2023-03-03T05:50:21;1.70;99.90
17845;DHT22;9047;53.486;10.218;2023-03-03T05:52:49;1.70;99.90
17845;DHT22;9047;53.486;10.218;2023-03-03T05:55:17;1.70;99.90
17845;DHT22;9047;53.486;10.218;2023-03-03T05:57:46;1.70;99.90
17845;DHT22;9047;53.486;10.218;2023-03-03T06:00:15;1.70;99.90
17845;DHT22;9047;53.486;10.218;2023-03-03T06:02:43;1.70;99.90
17845;DHT22;9047;53.486;10.218;2023-03-03T06:05:12;1.70;99.90
17845;DHT22;9047;53.486;10.218;2023-03-03T06:07:41;1.80;99.90
17845;DHT22;9047;53.486;10.218;2023-03-03T06:10:10;1.70;99.90
17845;DHT22;9047;53.486;10.218;2023-03-03T06:12:37;1.70;99.90
17845;DHT22;9047;53.486;10.218;2023-03-03T06:15:09;1.70;99.90
17845;DHT22;9047;53.486;10.218;2023-03-03T06:17:38;1.60;99.90
17845;DHT22;9047;53.486;10.218;2023-03-03T06:20:09;1.70;99.90
17845;DHT22;9047;53.486;10.218;2023-03-03T06:22:39;1.60;99.90
17845;DHT22;9047;53.486;10.218;2023-03-03T06:25:08;1.60;99.90
17845;DHT22;9047;53.486;10.218;2023-03-03T06:27:35;1.70;99.90
17845;DHT22;9047;53.486;10.218;2023-03-03T06:30:03;1.60;99.90
17845;DHT22;9047;53.486;10.218;2023-03-03T06:32:33;1.60;99.90
17845;DHT22;9047;53.486;10.218;2023-03-03T06:35:01;1.60;99.90
17845;DHT22;9047;53.486;10.218;2023-03-03T06:37:28;1.60;99.90
17845;DHT22;9047;53.486;10.218;2023-03-03T06:39:56;1.60;99.90
17845;DHT22;9047;53.486;10.218;2023-03-03T06:42:23;1.60;99.90
17845;DHT22;9047;53.486;10.218;2023-03-03T06:44:51;1.60;99.90
17845;DHT22;9047;53.486;10.218;2023-03-03T06:47:18;1.60;99.90
17845;DHT22;9047;53.486;10.218;2023-03-03T06:49:47;1.70;99.90
17845;DHT22;9047;53.486;10.218;2023-03-03T06:52:19;1.70;99.90
17845;DHT22;9047;53.486;10.218;2023-03-03T06:54:46;1.70;99.90
17845;DHT22;9047;53.486;10.218;2023-03-03T06:57:16;1.80;99.90
17845;DHT22;9047;53.486;10.218;2023-03-03T06:59:48;1.80;99.90
17845;DHT22;9047;53.486;10.218;2023-03-03T07:02:17;1.80;99.90
17845;DHT22;9047;53.486;10.218;2023-03-03T07:04:48;1.80;99.90
17845;DHT22;9047;53.486;10.218;2023-03-03T07:07:17;1.70;99.90
17845;DHT22;9047;53.486;10.218;2023-03-03T07:09:47;1.80;99.90
17845;DHT22;9047;53.486;10.218;2023-03-03T07:12:17;1.90;99.90
17845;DHT22;9047;53.486;10.218;2023-03-03T07:14:49;1.80;99.90
17845;DHT22;9047;53.486;10.218;2023-03-03T07:17:22;1.80;99.90
17845;DHT22;9047;53.486;10.218;2023-03-03T07:19:52;1.80;99.90
17845;DHT22;9047;53.486;10.218;2023-03-03T07:22:21;1.90;99.90
17845;DHT22;9047;53.486;10.218;2023-03-03T07:24:51;1.90;99.90
17845;DHT22;9047;53.486;10.218;2023-03-03T07:27:22;1.90;99.90
17845;DHT22;9047;53.486;10.218;2023-03-03T07:29:51;1.90;99.90
17845;DHT22;9047;53.486;10.218;2023-03-03T07:32:39;2.00;99.90
17845;DHT22;9047;53.486;10.218;2023-03-03T07:38:23;2.00;99.90
17845;DHT22;9047;53.486;10.218;2023-03-03T07:40:51;2.10;99.90
17845;DHT22;9047;53.486;10.218;2023-03-03T07:43:29;2.10;99.90
17845;DHT22;9047;53.486;10.218;2023-03-03T07:46:00;2.20;99.90
17845;DHT22;9047;53.486;10.218;2023-03-03T07:48:33;2.20;99.90
17845;DHT22;9047;53.486;10.218;2023-03-03T07:51:12;2.30;99.90
17845;DHT22;9047;53.486;10.218;2023-03-03T07:53:42;2.40;99.90
17845;DHT22;9047;53.486;10.218;2023-03-03T07:56:16;2.50;99.90
17845;DHT22;9047;53.486;10.218;2023-03-03T07:58:49;2.50;99.90
17845;DHT22;9047;53.486;10.218;2023-03-03T08:01:36;2.50;99.90
17845;DHT22;9047;53.486;10.218;2023-03-03T08:04:16;2.50;99.90
17845;DHT22;9047;53.486;10.218;2023-03-03T08:06:48;2.60;99.90
17845;DHT22;9047;53.486;10.218;2023-03-03T08:09:37;2.60;99.90
17845;DHT22;9047;53.486;10.218;2023-03-03T08:12:37;2.70;99.90
17845;DHT22;9047;53.486;10.218;2023-03-03T08:15:23;2.70;99.90
17845;DHT22;9047;53.486;10.218;2023-03-03T08:17:54;2.80;99.90
17845;DHT22;9047;53.486;10.218;2023-03-03T08:20:43;2.80;99.90
17845;DHT22;9047;53.486;10.218;2023-03-03T08:23:14;2.90;99.90
17845;DHT22;9047;53.486;10.218;2023-03-03T08:25:44;2.90;99.90
17845;DHT22;9047;53.486;10.218;2023-03-03T08:28:12;3.00;99.90
17845;DHT22;9047;53.486;10.218;2023-03-03T08:30:40;3.10;99.90
17845;DHT22;9047;53.486;10.218;2023-03-03T08:33:07;3.00;99.90
17845;DHT22;9047;53.486;10.218;2023-03-03T08:35:34;3.10;99.90
17845;DHT22;9047;53.486;10.218;2023-03-03T08:38:08;3.10;99.90
17845;DHT22;9047;53.486;10.218;2023-03-03T08:40:37;3.10;99.90
17845;DHT22;9047;53.486;10.218;2023-03-03T08:43:04;3.00;99.90
17845;DHT22;9047;53.486;10.218;2023-03-03T08:45:34;3.10;99.90
17845;DHT22;9047;53.486;10.218;2023-03-03T08:48:02;3.10;99.90
17845;DHT22;9047;53.486;10.218;2023-03-03T08:50:29;3.20;99.90
17845;DHT22;9047;53.486;10.218;2023-03-03T08:52:56;3.20;99.90
17845;DHT22;9047;53.486;10.218;2023-03-03T08:55:24;3.30;99.90
17845;DHT22;9047;53.486;10.218;2023-03-03T08:57:53;3.30;99.90
17845;DHT22;9047;53.486;10.218;2023-03-03T09:00:21;3.40;99.90
17845;DHT22;9047;53.486;10.218;2023-03-03T09:02:50;3.30;99.90
17845;DHT22;9047;53.486;10.218;2023-03-03T09:05:18;3.40;99.90
17845;DHT22;9047;53.486;10.218;2023-03-03T09:07:49;3.40;99.90
17845;DHT22;9047;53.486;10.218;2023-03-03T09:10:19;3.40;99.90
17845;DHT22;9047;53.486;10.218;2023-03-03T09:12:53;3.40;99.90
17845;DHT22;9047;53.486;10.218;2023-03-03T09:15:24;3.50;99.90
17845;DHT22;9047;53.486;10.218;2023-03-03T09:17:57;3.40;99.90
17845;DHT22;9047;53.486;10.218;2023-03-03T09:20:34;3.40;99.90
17845;DHT22;9047;53.486;10.218;2023-03-03T09:23:29;3.40;99.90
17845;DHT22;9047;53.486;10.218;2023-03-03T09:26:05;3.40;99.90
17845;DHT22;9047;53.486;10.218;2023-03-03T09:28:40;3.40;99.90
17845;DHT22;9047;53.486;10.218;2023-03-03T09:31:19;3.40;99.90
17845;DHT22;9047;53.486;10.218;2023-03-03T09:33:49;3.20;99.90
17845;DHT22;9047;53.486;10.218;2023-03-03T09:36:23;3.40;99.90
17845;DHT22;9047;53.486;10.218;2023-03-03T09:38:52;3.40;99.90
17845;DHT22;9047;53.486;10.218;2023-03-03T09:41:45;3.50;99.90
17845;DHT22;9047;53.486;10.218;2023-03-03T09:44:46;3.60;99.90
17845;DHT22;9047;53.486;10.218;2023-03-03T09:47:32;3.60;99.90
17845;DHT22;9047;53.486;10.218;2023-03-03T09:50:12;3.50;99.90
17845;DHT22;9047;53.486;10.218;2023-03-03T09:52:51;3.60;99.90
17845;DHT22;9047;53.486;10.218;2023-03-03T09:55:37;3.70;99.90
17845;DHT22;9047;53.486;10.218;2023-03-03T09:58:31;3.90;99.90
17845;DHT22;9047;53.486;10.218;2023-03-03T10:01:13;4.00;99.90
17845;DHT22;9047;53.486;10.218;2023-03-03T10:04:06;4.20;99.90
17845;DHT22;9047;53.486;10.218;2023-03-03T10:06:39;4.20;99.90
17845;DHT22;9047;53.486;10.218;2023-03-03T10:09:31;4.20;99.90
17845;DHT22;9047;53.486;10.218;2023-03-03T10:12:08;4.30;99.90
17845;DHT22;9047;53.486;10.218;2023-03-03T10:15:02;4.30;99.90
17845;DHT22;9047;53.486;10.218;2023-03-03T10:17:47;4.30;99.90
17845;DHT22;9047;53.486;10.218;2023-03-03T10:20:29;4.30;99.90
17845;DHT22;9047;53.486;10.218;2023-03-03T10:23:09;4.30;99.90
17845;DHT22;9047;53.486;10.218;2023-03-03T10:25:51;4.30;99.90
17845;DHT22;9047;53.486;10.218;2023-03-03T10:28:57;4.20;99.90
17845;DHT22;9047;53.486;10.218;2023-03-03T10:31:41;4.20;99.90
17845;DHT22;9047;53.486;10.218;2023-03-03T10:34:28;4.30;99.90
17845;DHT22;9047;53.486;10.218;2023-03-03T10:37:04;4.30;99.90
17845;DHT22;9047;53.486;10.218;2023-03-03T10:42:44;4.40;99.90
17845;DHT22;9047;53.486;10.218;2023-03-03T10:48:40;4.60;99.90
17845;DHT22;9047;53.486;10.218;2023-03-03T10:51:17;4.70;99.90
17845;DHT22;9047;53.486;10.218;2023-03-03T10:53:57;4.80;99.90
17845;DHT22;9047;53.486;10.218;2023-03-03T10:56:36;4.90;99.90
17845;DHT22;9047;53.486;10.218;2023-03-03T10:59:16;5.00;99.90
17845;DHT22;9047;53.486;10.218;2023-03-03T11:01:51;5.00;99.90
17845;DHT22;9047;53.486;10.218;2023-03-03T11:04:32;5.00;99.90
17845;DHT22;9047;53.486;10.218;2023-03-03T11:07:07;5.10;99.90
17845;DHT22;9047;53.486;10.218;2023-03-03T11:09:53;5.10;99.90
17845;DHT22;9047;53.486;10.218;2023-03-03T11:12:27;5.20;99.90
17845;DHT22;9047;53.486;10.218;2023-03-03T11:15:11;5.20;99.90
17845;DHT22;9047;53.486;10.218;2023-03-03T11:17:57;5.30;99.90
17845;DHT22;9047;53.486;10.218;2023-03-03T11:20:35;5.40;99.90
17845;DHT22;9047;53.486;10.218;2023-03-03T11:23:19;5.50;99.90
17845;DHT22;9047;53.486;10.218;2023-03-03T11:25:52;5.70;99.90
17845;DHT22;9047;53.486;10.218;2023-03-03T11:28:29;5.80;99.90
17845;DHT22;9047;53.486;10.218;2023-03-03T11:31:09;5.90;99.90
17845;DHT22;9047;53.486;10.218;2023-03-03T11:33:46;6.00;99.90
17845;DHT22;9047;53.486;10.218;2023-03-03T11:36:22;6.10;99.90
17845;DHT22;9047;53.486;10.218;2023-03-03T11:38:56;6.20;99.90
17845;DHT22;9047;53.486;10.218;2023-03-03T11:41:31;6.30;99.90
17845;DHT22;9047;53.486;10.218;2023-03-03T11:44:16;6.30;99.90
17845;DHT22;9047;53.486;10.218;2023-03-03T11:46:47;6.40;99.90
17845;DHT22;9047;53.486;10.218;2023-03-03T11:49:19;6.40;99.90
17845;DHT22;9047;53.486;10.218;2023-03-03T11:51:58;6.30;99.90
17845;DHT22;9047;53.486;10.218;2023-03-03T11:54:33;6.40;99.90
17845;DHT22;9047;53.486;10.218;2023-03-03T11:57:15;6.50;99.90
17845;DHT22;9047;53.486;10.218;2023-03-03T11:59:54;6.60;99.90
17845;DHT22;9047;53.486;10.218;2023-03-03T12:02:35;6.60;99.90
17845;DHT22;9047;53.486;10.218;2023-03-03T12:05:13;6.70;99.90
17845;DHT22;9047;53.486;10.218;2023-03-03T12:07:50;6.70;99.90
17845;DHT22;9047;53.486;10.218;2023-03-03T12:10:27;6.60;99.90
17845;DHT22;9047;53.486;10.218;2023-03-03T12:13:01;6.60;99.90
17845;DHT22;9047;53.486;10.218;2023-03-03T12:15:35;6.60;99.90
17845;DHT22;9047;53.486;10.218;2023-03-03T12:18:22;6.60;99.90
17845;DHT22;9047;53.486;10.218;2023-03-03T12:21:00;6.70;99.90
17845;DHT22;9047;53.486;10.218;2023-03-03T12:23:54;6.70;99.90
17845;DHT22;9047;53.486;10.218;2023-03-03T12:26:32;6.70;99.90
17845;DHT22;9047;53.486;10.218;2023-03-03T12:29:06;6.80;99.90
17845;DHT22;9047;53.486;10.218;2023-03-03T12:31:46;6.90;99.90
17845;DHT22;9047;53.486;10.218;2023-03-03T12:34:20;7.00;99.90
17845;DHT22;9047;53.486;10.218;2023-03-03T12:37:09;7.20;99.90
17845;DHT22;9047;53.486;10.218;2023-03-03T12:39:45;7.10;99.90
17845;DHT22;9047;53.486;10.218;2023-03-03T12:42:23;7.20;99.90
17845;DHT22;9047;53.486;10.218;2023-03-03T12:45:04;7.30;99.90
17845;DHT22;9047;53.486;10.218;2023-03-03T12:47:37;7.40;99.90
17845;DHT22;9047;53.486;10.218;2023-03-03T12:50:24;7.60;99.90
17845;DHT22;9047;53.486;10.218;2023-03-03T12:52:59;7.90;99.90
17845;DHT22;9047;53.486;10.218;2023-03-03T12:55:36;8.10;99.90
17845;DHT22;9047;53.486;10.218;2023-03-03T12:58:28;8.40;99.90
17845;DHT22;9047;53.486;10.218;2023-03-03T13:01:05;8.60;99.90
17845;DHT22;9047;53.486;10.218;2023-03-03T13:03:39;8.60;99.90
17845;DHT22;9047;53.486;10.218;2023-03-03T13:06:16;8.80;99.90
17845;DHT22;9047;53.486;10.218;2023-03-03T13:09:10;8.80;99.90
17845;DHT22;9047;53.486;10.218;2023-03-03T13:11:54;8.80;99.90
17845;DHT22;9047;53.486;10.218;2023-03-03T13:14:33;8.90;99.90
17845;DHT22;9047;53.486;10.218;2023-03-03T13:17:08;8.80;99.90
17845;DHT22;9047;53.486;10.218;2023-03-03T13:19:43;8.80;99.90
17845;DHT22;9047;53.486;10.218;2023-03-03T13:22:14;8.70;99.90
17845;DHT22;9047;53.486;10.218;2023-03-03T13:24:54;8.60;99.90
17845;DHT22;9047;53.486;10.218;2023-03-03T13:27:29;8.60;99.90
17845;DHT22;9047;53.486;10.218;2023-03-03T13:30:02;8.60;99.90
17845;DHT22;9047;53.486;10.218;2023-03-03T13:32:34;8.60;99.90
17845;DHT22;9047;53.486;10.218;2023-03-03T13:35:08;8.70;99.90
17845;DHT22;9047;53.486;10.218;2023-03-03T13:37:37;8.60;99.90
17845;DHT22;9047;53.486;10.218;2023-03-03T13:40:16;8.60;99.90
17845;DHT22;9047;53.486;10.218;2023-03-03T13:42:47;8.60;99.90
17845;DHT22;9047;53.486;10.218;2023-03-03T13:45:22;8.60;99.90
17845;DHT22;9047;53.486;10.218;2023-03-03T13:48:00;8.60;99.90
17845;DHT22;9047;53.486;10.218;2023-03-03T13:50:37;8.50;99.90
17845;DHT22;9047;53.486;10.218;2023-03-03T13:53:28;8.50;99.90
17845;DHT22;9047;53.486;10.218;2023-03-03T13:56:05;8.50;99.90
17845;DHT22;9047;53.486;10.218;2023-03-03T13:58:39;8.40;99.90
17845;DHT22;9047;53.486;10.218;2023-03-03T14:01:17;8.40;99.90
17845;DHT22;9047;53.486;10.218;2023-03-03T14:03:58;8.30;99.90
17845;DHT22;9047;53.486;10.218;2023-03-03T14:06:27;8.30;99.90
17845;DHT22;9047;53.486;10.218;2023-03-03T14:09:21;8.30;99.90
17845;DHT22;9047;53.486;10.218;2023-03-03T14:11:59;8.30;99.90
17845;DHT22;9047;53.486;10.218;2023-03-03T14:14:40;8.30;99.90
17845;DHT22;9047;53.486;10.218;2023-03-03T14:17:19;8.30;99.90
17845;DHT22;9047;53.486;10.218;2023-03-03T14:20:09;8.40;99.90
17845;DHT22;9047;53.486;10.218;2023-03-03T14:22:44;8.40;99.90
17845;DHT22;9047;53.486;10.218;2023-03-03T14:25:12;8.40;99.90
17845;DHT22;9047;53.486;10.218;2023-03-03T14:28:00;8.40;99.90
17845;DHT22;9047;53.486;10.218;2023-03-03T14:30:30;8.40;99.90
17845;DHT22;9047;53.486;10.218;2023-03-03T14:33:13;8.50;99.90
17845;DHT22;9047;53.486;10.218;2023-03-03T14:35:43;8.40;99.90
17845;DHT22;9047;53.486;10.218;2023-03-03T14:38:12;8.40;99.90
17845;DHT22;9047;53.486;10.218;2023-03-03T14:40:41;8.30;99.90
17845;DHT22;9047;53.486;10.218;2023-03-03T14:43:21;8.20;99.90
17845;DHT22;9047;53.486;10.218;2023-03-03T14:45:49;8.10;99.90
17845;DHT22;9047;53.486;10.218;2023-03-03T14:48:19;8.00;99.90
17845;DHT22;9047;53.486;10.218;2023-03-03T14:50:50;8.00;99.90
17845;DHT22;9047;53.486;10.218;2023-03-03T14:53:31;7.90;99.90
17845;DHT22;9047;53.486;10.218;2023-03-03T14:56:16;7.80;99.90
17845;DHT22;9047;53.486;10.218;2023-03-03T14:58:47;7.80;99.90
17845;DHT22;9047;53.486;10.218;2023-03-03T15:01:21;7.70;99.90
17845;DHT22;9047;53.486;10.218;2023-03-03T15:03:57;7.70;99.90
17845;DHT22;9047;53.486;10.218;2023-03-03T15:06:33;7.60;99.90
17845;DHT22;9047;53.486;10.218;2023-03-03T15:09:23;7.60;99.90
17845;DHT22;9047;53.486;10.218;2023-03-03T15:11:55;7.50;99.90
17845;DHT22;9047;53.486;10.218;2023-03-03T15:14:28;7.50;99.90
17845;DHT22;9047;53.486;10.218;2023-03-03T15:16:56;7.50;99.90
17845;DHT22;9047;53.486;10.218;2023-03-03T15:22:47;7.50;99.90
17845;DHT22;9047;53.486;10.218;2023-03-03T15:25:21;7.50;99.90
17845;DHT22;9047;53.486;10.218;2023-03-03T15:27:56;7.50;99.90
17845;DHT22;9047;53.486;10.218;2023-03-03T15:30:35;7.50;99.90
17845;DHT22;9047;53.486;10.218;2023-03-03T15:33:13;7.40;99.90
17845;DHT22;9047;53.486;10.218;2023-03-03T15:35:47;7.40;99.90
17845;DHT22;9047;53.486;10.218;2023-03-03T15:38:30;7.40;99.90
17845;DHT22;9047;53.486;10.218;2023-03-03T15:41:04;7.30;99.90
17845;DHT22;9047;53.486;10.218;2023-03-03T15:43:37;7.20;99.90
17845;DHT22;9047;53.486;10.218;2023-03-03T15:46:18;7.20;99.90
17845;DHT22;9047;53.486;10.218;2023-03-03T15:48:59;7.20;99.90
17845;DHT22;9047;53.486;10.218;2023-03-03T15:51:45;7.10;99.90
17845;DHT22;9047;53.486;10.218;2023-03-03T15:54:35;7.10;99.90
17845;DHT22;9047;53.486;10.218;2023-03-03T15:57:07;7.00;99.90
17845;DHT22;9047;53.486;10.218;2023-03-03T15:59:58;7.00;99.90
17845;DHT22;9047;53.486;10.218;2023-03-03T16:02:38;7.00;99.90
17845;DHT22;9047;53.486;10.218;2023-03-03T16:05:15;6.90;99.90
17845;DHT22;9047;53.486;10.218;2023-03-03T16:07:52;7.00;99.90
17845;DHT22;9047;53.486;10.218;2023-03-03T16:10:28;6.90;99.90
17845;DHT22;9047;53.486;10.218;2023-03-03T16:13:22;6.90;99.90
17845;DHT22;9047;53.486;10.218;2023-03-03T16:16:08;6.90;99.90
17845;DHT22;9047;53.486;10.218;2023-03-03T16:18:48;6.90;99.90
17845;DHT22;9047;53.486;10.218;2023-03-03T16:21:25;6.90;99.90
17845;DHT22;9047;53.486;10.218;2023-03-03T16:23:55;6.90;99.90
17845;DHT22;9047;53.486;10.218;2023-03-03T16:26:34;6.80;99.90
17845;DHT22;9047;53.486;10.218;2023-03-03T16:29:25;6.80;99.90
17845;DHT22;9047;53.486;10.218;2023-03-03T16:31:57;6.80;99.90
17845;DHT22;9047;53.486;10.218;2023-03-03T16:34:32;6.80;99.90
17845;DHT22;9047;53.486;10.218;2023-03-03T16:37:11;6.70;99.90
17845;DHT22;9047;53.486;10.218;2023-03-03T16:39:54;6.70;99.90
17845;DHT22;9047;53.486;10.218;2023-03-03T16:42:28;6.70;99.90
17845;DHT22;9047;53.486;10.218;2023-03-03T16:45:05;6.70;99.90
17845;DHT22;9047;53.486;10.218;2023-03-03T16:47:51;6.70;99.90
17845;DHT22;9047;53.486;10.218;2023-03-03T16:50:26;6.70;99.90
17845;DHT22;9047;53.486;10.218;2023-03-03T16:53:09;6.60;99.90
17845;DHT22;9047;53.486;10.218;2023-03-03T16:55:49;6.60;99.90
17845;DHT22;9047;53.486;10.218;2023-03-03T16:58:29;6.50;99.90
17845;DHT22;9047;53.486;10.218;2023-03-03T17:01:07;6.50;99.90
17845;DHT22;9047;53.486;10.218;2023-03-03T17:03:58;6.40;99.90
17845;DHT22;9047;53.486;10.218;2023-03-03T17:06:33;6.40;99.90
17845;DHT22;9047;53.486;10.218;2023-03-03T17:09:22;6.30;99.90
17845;DHT22;9047;53.486;10.218;2023-03-03T17:11:56;6.30;99.90
17845;DHT22;9047;53.486;10.218;2023-03-03T17:14:40;6.20;99.90
17845;DHT22;9047;53.486;10.218;2023-03-03T17:17:16;6.20;99.90
17845;DHT22;9047;53.486;10.218;2023-03-03T17:19:57;6.20;99.90
17845;DHT22;9047;53.486;10.218;2023-03-03T17:22:37;6.10;99.90
17845;DHT22;9047;53.486;10.218;2023-03-03T17:25:12;6.10;99.90
17845;DHT22;9047;53.486;10.218;2023-03-03T17:27:58;6.10;99.90
17845;DHT22;9047;53.486;10.218;2023-03-03T17:30:34;6.10;99.90
17845;DHT22;9047;53.486;10.218;2023-03-03T17:33:29;6.10;99.90
17845;DHT22;9047;53.486;10.218;2023-03-03T17:36:14;6.10;99.90
17845;DHT22;9047;53.486;10.218;2023-03-03T17:38:55;6.10;99.90